Time;durP1;ratioP1;P1;durP2;ratioP2;P2;SDS_P1;SDS_P2;PMS_P1;PMS_P2;Temp;Humidity;BMP_temperature;BMP_pressure;BME280_temperature;BME280_humidity;BME280_pressure;Samples;Min_cycle;Max_cycle;Signal;HPM_P1;HPM_P2
2024/03/20 00:01:44;;;;;;;17.93;13.27;;;;;;;;;;6096406;23;20247;-80
2024/03/20 00:04:12;;;;;;;17.47;12.70;;;;;;;;;;6096695;23;20179;-82
2024/03/20 00:06:43;;;;;;;17.60;12.90;;;;;;;;;;6072243;23;20259;-80
2024/03/20 00:09:10;;;;;;;18.20;12.67;;;;;;;;;;6072491;23;20172;-79
2024/03/20 00:11:36;;;;;;;16.57;12.17;;;;;;;;;;6096250;23;20172;-81
2024/03/20 00:14:04;;;;;;;15.77;11.90;;;;;;;;;;6096007;23;20238;-78
2024/03/20 00:16:31;;;;;;;17.23;11.80;;;;;;;;;;6095926;23;20188;-81
2024/03/20 00:18:57;;;;;;;17.53;12.17;;;;;;;;;;6095983;23;20180;-80
2024/03/20 00:21:23;;;;;;;18.03;12.67;;;;;;;;;;6096034;23;20519;-80
2024/03/20 00:23:49;;;;;;;17.07;12.00;;;;;;;;;;6048031;23;20259;-80
2024/03/20 00:26:15;;;;;;;16.17;12.43;;;;;;;;;;6072180;23;20169;-80
2024/03/20 00:28:41;;;;;;;16.93;12.60;;;;;;;;;;6071963;23;20173;-81
2024/03/20 00:31:09;;;;;;;16.70;12.03;;;;;;;;;;6096064;23;20204;-80
2024/03/20 00:33:35;;;;;;;15.40;12.07;;;;;;;;;;6071837;23;20224;-81
2024/03/20 00:36:01;;;;;;;17.27;12.50;;;;;;;;;;6071835;23;20670;-82
2024/03/20 00:38:26;;;;;;;18.07;12.63;;;;;;;;;;6095537;23;20195;-79
2024/03/20 00:40:53;;;;;;;14.77;10.93;;;;;;;;;;6047952;23;20180;-80
2024/03/20 00:43:19;;;;;;;15.77;12.07;;;;;;;;;;6095428;23;20658;-80
2024/03/20 00:45:45;;;;;;;17.13;12.67;;;;;;;;;;6095665;23;20167;-78
2024/03/20 00:48:11;;;;;;;17.60;12.70;;;;;;;;;;6095690;23;20196;-83
2024/03/20 00:50:37;;;;;;;15.30;11.87;;;;;;;;;;6071831;23;20174;-82
2024/03/20 00:53:03;;;;;;;15.70;12.27;;;;;;;;;;6047765;23;20208;-78
2024/03/20 00:55:29;;;;;;;17.93;12.53;;;;;;;;;;6047459;23;20245;-80
2024/03/20 00:57:56;;;;;;;17.60;12.63;;;;;;;;;;6071681;23;20506;-80
2024/03/20 01:00:23;;;;;;;16.27;12.00;;;;;;;;;;6047455;23;20251;-80
2024/03/20 01:02:49;;;;;;;16.13;12.83;;;;;;;;;;6071666;23;20275;-82
2024/03/20 01:05:15;;;;;;;16.53;12.23;;;;;;;;;;6095226;23;20251;-82
2024/03/20 01:07:43;;;;;;;16.70;12.57;;;;;;;;;;6095250;23;20176;-79
2024/03/20 01:10:09;;;;;;;15.97;12.40;;;;;;;;;;6095145;23;20164;-80
2024/03/20 01:12:35;;;;;;;17.53;12.47;;;;;;;;;;6070825;23;20176;-80
2024/03/20 01:15:02;;;;;;;17.20;13.10;;;;;;;;;;6095084;23;20168;-80
2024/03/20 01:17:33;;;;;;;16.73;12.50;;;;;;;;;;6095074;23;20164;-82
2024/03/20 01:20:02;;;;;;;16.60;11.83;;;;;;;;;;6094507;23;20642;-80
2024/03/20 01:22:33;;;;;;;17.27;12.10;;;;;;;;;;6070890;23;20225;-78
2024/03/20 01:24:59;;;;;;;15.20;11.67;;;;;;;;;;6094593;23;20170;-82
2024/03/20 01:27:25;;;;;;;16.87;12.10;;;;;;;;;;6094825;23;20172;-80
2024/03/20 01:29:51;;;;;;;15.07;10.97;;;;;;;;;;6094660;23;20175;-79
2024/03/20 01:32:21;;;;;;;15.50;11.27;;;;;;;;;;6094453;23;20207;-78
2024/03/20 01:34:48;;;;;;;16.97;11.50;;;;;;;;;;6094516;23;20172;-82
2024/03/20 01:37:15;;;;;;;15.27;11.17;;;;;;;;;;6094804;23;20211;-84
2024/03/20 01:39:41;;;;;;;15.83;11.37;;;;;;;;;;6094567;23;20167;-82
2024/03/20 01:42:07;;;;;;;14.03;11.27;;;;;;;;;;6070820;23;20215;-81
2024/03/20 01:44:33;;;;;;;15.13;11.33;;;;;;;;;;6070792;23;20195;-79
2024/03/20 01:47:01;;;;;;;16.17;10.97;;;;;;;;;;6095115;23;20612;-80
2024/03/20 01:49:27;;;;;;;16.67;11.00;;;;;;;;;;6094743;23;20210;-80
2024/03/20 01:51:53;;;;;;;15.63;10.83;;;;;;;;;;6095010;23;20172;-80
2024/03/20 01:54:19;;;;;;;14.83;11.40;;;;;;;;;;6071030;23;20161;-80
2024/03/20 01:56:47;;;;;;;15.10;11.60;;;;;;;;;;6094894;23;20635;-81
2024/03/20 01:59:14;;;;;;;15.57;11.20;;;;;;;;;;6094836;23;20172;-81
2024/03/20 02:01:41;;;;;;;17.60;11.10;;;;;;;;;;6094776;23;20168;-81
2024/03/20 02:04:10;;;;;;;17.13;11.87;;;;;;;;;;6094662;23;20264;-81
2024/03/20 02:06:37;;;;;;;15.37;11.47;;;;;;;;;;6094596;23;20156;-84
2024/03/20 02:09:07;;;;;;;16.93;11.27;;;;;;;;;;6094957;23;20168;-81
2024/03/20 02:11:33;;;;;;;15.97;11.77;;;;;;;;;;6094819;23;20210;-81
2024/03/20 02:13:59;;;;;;;14.70;11.13;;;;;;;;;;6094544;23;20642;-80
2024/03/20 02:16:26;;;;;;;16.30;11.27;;;;;;;;;;6094637;23;20165;-85
2024/03/20 02:18:52;;;;;;;15.43;11.17;;;;;;;;;;6094452;23;20659;-79
2024/03/20 02:21:22;;;;;;;15.30;11.03;;;;;;;;;;6094680;23;20179;-80
2024/03/20 02:23:49;;;;;;;15.00;10.93;;;;;;;;;;6094276;23;20184;-79
2024/03/20 02:26:15;;;;;;;13.87;10.87;;;;;;;;;;6046612;23;20227;-82
2024/03/20 02:28:43;;;;;;;16.77;11.03;;;;;;;;;;6093983;23;20172;-81
2024/03/20 02:31:10;;;;;;;13.83;10.53;;;;;;;;;;6093903;23;20204;-81
2024/03/20 02:33:37;;;;;;;13.67;10.70;;;;;;;;;;6094319;23;20175;-83
2024/03/20 02:36:03;;;;;;;15.73;11.20;;;;;;;;;;6094206;23;20651;-80
2024/03/20 02:38:30;;;;;;;16.17;11.40;;;;;;;;;;6070324;23;20168;-79
2024/03/20 02:40:56;;;;;;;14.10;10.90;;;;;;;;;;6093825;23;20254;-80
2024/03/20 02:43:22;;;;;;;16.23;11.43;;;;;;;;;;6069989;23;20192;-80
2024/03/20 02:45:48;;;;;;;16.03;11.47;;;;;;;;;;6094225;23;20607;-82
2024/03/20 02:48:14;;;;;;;14.80;10.93;;;;;;;;;;6070373;23;20207;-80
2024/03/20 02:50:41;;;;;;;14.33;11.03;;;;;;;;;;6070203;23;20223;-80
2024/03/20 02:53:07;;;;;;;16.60;11.67;;;;;;;;;;6070098;23;20200;-81
2024/03/20 02:55:35;;;;;;;13.67;10.47;;;;;;;;;;6094046;23;20631;-81
2024/03/20 02:58:01;;;;;;;15.27;10.97;;;;;;;;;;6094077;23;20190;-80
2024/03/20 03:00:28;;;;;;;14.97;11.17;;;;;;;;;;6093995;23;20161;-82
2024/03/20 03:02:54;;;;;;;14.60;10.93;;;;;;;;;;6093930;23;20212;-82
2024/03/20 03:05:21;;;;;;;15.37;11.10;;;;;;;;;;6070050;23;20168;-81
2024/03/20 03:07:47;;;;;;;14.80;11.17;;;;;;;;;;6070132;23;20168;-80
2024/03/20 03:10:14;;;;;;;14.77;10.70;;;;;;;;;;6045849;23;20240;-81
2024/03/20 03:12:41;;;;;;;16.10;11.73;;;;;;;;;;6094043;23;20615;-81
2024/03/20 03:15:07;;;;;;;14.67;11.03;;;;;;;;;;6069726;23;20251;-82
2024/03/20 03:17:33;;;;;;;16.00;11.07;;;;;;;;;;6094629;23;20196;-83
2024/03/20 03:19:59;;;;;;;16.87;11.40;;;;;;;;;;6071454;23;20178;-79
2024/03/20 03:22:25;;;;;;;16.53;11.90;;;;;;;;;;6095389;23;20267;-80
2024/03/20 03:24:51;;;;;;;14.70;11.23;;;;;;;;;;6071568;23;20172;-83
2024/03/20 03:27:18;;;;;;;15.87;11.17;;;;;;;;;;6095632;23;20208;-80
2024/03/20 03:29:47;;;;;;;16.07;10.43;;;;;;;;;;6072163;23;20168;-80
2024/03/20 03:32:13;;;;;;;16.50;11.27;;;;;;;;;;6095103;23;20204;-82
2024/03/20 03:34:39;;;;;;;14.57;10.80;;;;;;;;;;6071276;23;20678;-81
2024/03/20 03:37:09;;;;;;;15.90;11.07;;;;;;;;;;6048392;23;20172;-81
2024/03/20 03:39:36;;;;;;;14.33;10.47;;;;;;;;;;6095038;23;20608;-79
2024/03/20 03:42:02;;;;;;;17.53;11.77;;;;;;;;;;6095540;23;20212;-80
2024/03/20 03:44:28;;;;;;;14.87;10.67;;;;;;;;;;6094737;23;20631;-78
2024/03/20 03:46:57;;;;;;;16.40;11.53;;;;;;;;;;6095060;23;20196;-82
2024/03/20 03:49:23;;;;;;;15.67;10.93;;;;;;;;;;6094986;23;20161;-82
2024/03/20 03:51:48;;;;;;;13.73;10.47;;;;;;;;;;6071117;23;20183;-81
2024/03/20 03:54:14;;;;;;;15.17;10.17;;;;;;;;;;6095098;23;20171;-81
2024/03/20 03:56:40;;;;;;;18.67;11.63;;;;;;;;;;6071121;23;20211;-79
2024/03/20 03:59:06;;;;;;;15.00;11.27;;;;;;;;;;6095531;23;20679;-81
2024/03/20 04:01:33;;;;;;;16.27;11.73;;;;;;;;;;6095375;23;20888;-81
2024/03/20 04:03:59;;;;;;;15.07;11.13;;;;;;;;;;6095222;23;20636;-81
2024/03/20 04:06:26;;;;;;;17.03;11.40;;;;;;;;;;6094812;23;20351;-81
2024/03/20 04:08:52;;;;;;;15.77;11.57;;;;;;;;;;6094906;23;20631;-80
2024/03/20 04:11:23;;;;;;;15.87;11.73;;;;;;;;;;6071126;23;20169;-81
2024/03/20 04:13:53;;;;;;;16.80;11.13;;;;;;;;;;6071832;23;20157;-80
2024/03/20 04:16:28;;;;;;;16.97;11.57;;;;;;;;;;6072325;23;20161;-81
2024/03/20 04:18:55;;;;;;;15.23;10.23;;;;;;;;;;6095049;23;20207;-81
2024/03/20 04:21:23;;;;;;;17.30;11.30;;;;;;;;;;6094828;23;20177;-81
2024/03/20 04:23:49;;;;;;;17.17;11.97;;;;;;;;;;6094607;23;20192;-82
2024/03/20 04:26:15;;;;;;;16.47;11.33;;;;;;;;;;6095153;23;20622;-79
2024/03/20 04:28:42;;;;;;;17.40;11.70;;;;;;;;;;6046688;23;20168;-82
2024/03/20 04:31:11;;;;;;;15.40;11.47;;;;;;;;;;6094491;23;20667;-80
2024/03/20 04:33:38;;;;;;;17.87;12.77;;;;;;;;;;6094483;23;20176;-81
2024/03/20 04:36:04;;;;;;;17.07;11.77;;;;;;;;;;6094038;23;20534;-81
2024/03/20 04:38:56;;;;;;;16.40;10.73;;;;;;;;;;6094395;23;20163;-80
2024/03/20 04:41:22;;;;;;;15.47;10.50;;;;;;;;;;6094638;23;20169;-80
2024/03/20 04:43:51;;;;;;;14.87;11.30;;;;;;;;;;6094120;23;20188;-80
2024/03/20 04:46:20;;;;;;;17.30;11.63;;;;;;;;;;6070268;23;20176;-79
2024/03/20 04:48:46;;;;;;;18.17;10.97;;;;;;;;;;6046512;23;20177;-81
2024/03/20 04:51:12;;;;;;;15.67;11.00;;;;;;;;;;6070658;23;20203;-79
2024/03/20 04:53:38;;;;;;;16.97;11.33;;;;;;;;;;6070482;23;20195;-80
2024/03/20 04:56:07;;;;;;;16.93;11.37;;;;;;;;;;6094641;23;20222;-80
2024/03/20 04:58:33;;;;;;;15.63;11.50;;;;;;;;;;6071197;23;20177;-83
2024/03/20 05:00:59;;;;;;;17.63;11.67;;;;;;;;;;6094582;23;20637;-82
2024/03/20 05:03:27;;;;;;;15.90;11.27;;;;;;;;;;6095361;23;20180;-81
2024/03/20 05:05:55;;;;;;;16.27;11.53;;;;;;;;;;6095351;23;20216;-83
2024/03/20 05:08:22;;;;;;;13.97;10.67;;;;;;;;;;6096206;23;20192;-80
2024/03/20 05:10:48;;;;;;;15.90;11.27;;;;;;;;;;6095524;23;20203;-80
2024/03/20 05:13:15;;;;;;;15.87;11.00;;;;;;;;;;6094970;23;20305;-81
2024/03/20 05:15:41;;;;;;;15.53;10.90;;;;;;;;;;6094112;23;20175;-81
2024/03/20 05:18:07;;;;;;;16.77;11.50;;;;;;;;;;6094847;23;20192;-80
2024/03/20 05:20:33;;;;;;;16.37;11.30;;;;;;;;;;6047229;23;20169;-80
2024/03/20 05:22:59;;;;;;;13.97;10.50;;;;;;;;;;6094405;23;20636;-79
2024/03/20 05:25:25;;;;;;;16.03;10.27;;;;;;;;;;6070749;23;20165;-80
2024/03/20 05:27:51;;;;;;;15.57;10.90;;;;;;;;;;6071181;23;20239;-79
2024/03/20 05:30:17;;;;;;;15.00;11.27;;;;;;;;;;6095155;23;20711;-79
2024/03/20 05:32:43;;;;;;;16.60;11.60;;;;;;;;;;6052238;23;20619;-80
2024/03/20 05:35:09;;;;;;;16.37;11.20;;;;;;;;;;6099685;23;20238;-81
2024/03/20 05:37:35;;;;;;;14.57;10.40;;;;;;;;;;6099965;23;20615;-81
2024/03/20 05:40:01;;;;;;;15.47;10.83;;;;;;;;;;6075441;23;20175;-78
2024/03/20 05:42:27;;;;;;;15.77;11.37;;;;;;;;;;6075656;23;20541;-81
2024/03/20 05:44:53;;;;;;;17.90;11.37;;;;;;;;;;6099451;23;20615;-79
2024/03/20 05:47:23;;;;;;;14.37;10.53;;;;;;;;;;6101155;23;20159;-79
2024/03/20 05:49:50;;;;;;;17.87;12.23;;;;;;;;;;6076202;23;20199;-81
2024/03/20 05:52:19;;;;;;;15.60;11.83;;;;;;;;;;6099998;23;20641;-81
2024/03/20 05:54:45;;;;;;;16.47;11.43;;;;;;;;;;6076016;23;20168;-81
2024/03/20 05:57:11;;;;;;;17.63;11.23;;;;;;;;;;6052576;23;20242;-79
2024/03/20 05:59:37;;;;;;;15.93;11.37;;;;;;;;;;6051924;23;20172;-80
2024/03/20 06:02:03;;;;;;;17.50;11.87;;;;;;;;;;6075705;23;20229;-79
2024/03/20 06:04:29;;;;;;;15.10;11.23;;;;;;;;;;6052168;23;20163;-81
2024/03/20 06:06:55;;;;;;;18.03;11.33;;;;;;;;;;6100046;23;20285;-80
2024/03/20 06:09:24;;;;;;;17.57;11.90;;;;;;;;;;6076019;23;20619;-79
2024/03/20 06:11:50;;;;;;;16.93;11.60;;;;;;;;;;6100084;23;20171;-80
2024/03/20 06:14:16;;;;;;;16.13;11.27;;;;;;;;;;6075942;23;20199;-80
2024/03/20 06:16:43;;;;;;;14.87;11.03;;;;;;;;;;6052371;23;20247;-81
2024/03/20 06:19:10;;;;;;;14.70;10.83;;;;;;;;;;6099934;23;20250;-81
2024/03/20 06:21:40;;;;;;;14.40;10.97;;;;;;;;;;6076218;23;20210;-79
2024/03/20 06:24:07;;;;;;;15.03;11.07;;;;;;;;;;6076100;23;20187;-81
2024/03/20 06:26:35;;;;;;;13.73;10.20;;;;;;;;;;6075975;23;20218;-80
2024/03/20 06:29:02;;;;;;;12.33;10.20;;;;;;;;;;6075827;23;20180;-81
2024/03/20 06:31:28;;;;;;;14.00;11.03;;;;;;;;;;6051965;23;20227;-79
2024/03/20 06:33:55;;;;;;;15.07;10.57;;;;;;;;;;6075964;23;20175;-79
2024/03/20 06:36:21;;;;;;;15.07;11.07;;;;;;;;;;6099753;23;20183;-80
2024/03/20 06:38:47;;;;;;;14.00;10.80;;;;;;;;;;6076100;23;20254;-79
2024/03/20 06:41:15;;;;;;;14.17;10.87;;;;;;;;;;6100177;23;20685;-81
2024/03/20 06:43:43;;;;;;;14.93;10.70;;;;;;;;;;6051946;23;20191;-80
2024/03/20 06:46:14;;;;;;;13.60;10.73;;;;;;;;;;6099208;23;20179;-82
2024/03/20 06:48:41;;;;;;;15.67;11.30;;;;;;;;;;6100122;23;20163;-79
2024/03/20 06:51:15;;;;;;;14.33;11.00;;;;;;;;;;6101580;23;20201;-78
2024/03/20 06:53:41;;;;;;;13.63;10.70;;;;;;;;;;6054039;23;20176;-78
2024/03/20 06:56:07;;;;;;;12.87;10.70;;;;;;;;;;6078274;23;20679;-81
2024/03/20 06:58:33;;;;;;;12.60;10.13;;;;;;;;;;6102028;23;20171;-80
2024/03/20 07:00:59;;;;;;;14.73;12.33;;;;;;;;;;6101471;23;20163;-79
2024/03/20 07:03:27;;;;;;;14.80;12.30;;;;;;;;;;6077418;23;20657;-79
2024/03/20 07:05:54;;;;;;;15.80;12.20;;;;;;;;;;6077800;23;20195;-80
2024/03/20 07:08:20;;;;;;;16.70;12.77;;;;;;;;;;6101664;23;20190;-82
2024/03/20 07:10:46;;;;;;;16.17;12.37;;;;;;;;;;6077985;23;20615;-80
2024/03/20 07:13:12;;;;;;;15.53;12.80;;;;;;;;;;6077685;23;20635;-80
2024/03/20 07:15:38;;;;;;;15.83;13.23;;;;;;;;;;6053230;23;20168;-79
2024/03/20 07:18:04;;;;;;;15.67;12.23;;;;;;;;;;6077178;23;20787;-80
2024/03/20 07:20:30;;;;;;;17.53;13.87;;;;;;;;;;6051968;23;20178;-80
2024/03/20 07:23:01;;;;;;;16.10;13.90;;;;;;;;;;6052453;23;20195;-81
2024/03/20 07:25:27;;;;;;;18.90;13.97;;;;;;;;;;6078486;23;20197;-81
2024/03/20 07:27:54;;;;;;;17.23;13.27;;;;;;;;;;6101560;23;20174;-81
2024/03/20 07:30:20;;;;;;;16.10;13.07;;;;;;;;;;6101677;23;20221;-81
2024/03/20 07:32:47;;;;;;;15.97;12.73;;;;;;;;;;6078078;23;20206;-81
2024/03/20 07:35:25;;;;;;;16.33;13.20;;;;;;;;;;6077226;23;20171;-82
2024/03/20 07:37:51;;;;;;;16.53;12.83;;;;;;;;;;6078276;23;20167;-80
2024/03/20 07:40:17;;;;;;;14.93;12.83;;;;;;;;;;6078679;23;20238;-81
2024/03/20 07:42:43;;;;;;;17.43;12.97;;;;;;;;;;6078276;23;20275;-79
2024/03/20 07:45:09;;;;;;;23.47;18.77;;;;;;;;;;6103253;23;20176;-81
2024/03/20 07:47:35;;;;;;;16.27;13.80;;;;;;;;;;6078914;23;20175;-81
2024/03/20 07:50:03;;;;;;;16.17;13.80;;;;;;;;;;6078296;23;20171;-80
2024/03/20 07:52:29;;;;;;;15.83;13.20;;;;;;;;;;6078193;23;20168;-79
2024/03/20 07:54:56;;;;;;;16.03;12.97;;;;;;;;;;6102527;23;20552;-78
2024/03/20 07:57:25;;;;;;;14.70;12.90;;;;;;;;;;6078269;23;20256;-78
2024/03/20 07:59:51;;;;;;;15.93;12.77;;;;;;;;;;6102355;23;20195;-80
2024/03/20 08:02:17;;;;;;;19.83;17.23;;;;;;;;;;6079368;23;20246;-81
2024/03/20 08:04:43;;;;;;;18.17;15.70;;;;;;;;;;6078104;23;20170;-78
2024/03/20 08:07:09;;;;;;;17.57;13.67;;;;;;;;;;6101903;23;20172;-78
2024/03/20 08:09:37;;;;;;;16.67;13.27;;;;;;;;;;6102172;23;20172;-79
2024/03/20 08:12:03;;;;;;;15.37;13.43;;;;;;;;;;6102012;23;20254;-79
2024/03/20 08:14:30;;;;;;;15.30;13.13;;;;;;;;;;6078370;23;20191;-80
2024/03/20 08:16:57;;;;;;;16.43;13.13;;;;;;;;;;6102287;23;20168;-82
2024/03/20 08:19:24;;;;;;;15.07;12.20;;;;;;;;;;6101809;23;20203;-80
2024/03/20 08:21:50;;;;;;;17.07;13.70;;;;;;;;;;6101348;23;20175;-79
2024/03/20 08:24:19;;;;;;;17.87;13.07;;;;;;;;;;6102105;23;20258;-79
2024/03/20 08:26:48;;;;;;;15.20;12.67;;;;;;;;;;6078439;23;20303;-80
2024/03/20 08:29:14;;;;;;;15.57;12.50;;;;;;;;;;6053894;23;20168;-79
2024/03/20 08:31:43;;;;;;;16.83;12.40;;;;;;;;;;6072896;23;20223;-79
2024/03/20 08:34:09;;;;;;;14.50;11.70;;;;;;;;;;6096944;23;20241;-79
2024/03/20 08:36:36;;;;;;;16.60;11.60;;;;;;;;;;6096272;23;20195;-79
2024/03/20 08:39:02;;;;;;;13.67;11.43;;;;;;;;;;6048317;23;20176;-77
2024/03/20 08:41:29;;;;;;;14.60;11.40;;;;;;;;;;6095974;23;20624;-81
2024/03/20 08:43:55;;;;;;;13.40;11.90;;;;;;;;;;6096185;23;20192;-79
2024/03/20 08:46:23;;;;;;;15.43;11.87;;;;;;;;;;6095975;23;20565;-79
2024/03/20 08:48:49;;;;;;;14.67;11.70;;;;;;;;;;6071798;23;20520;-78
2024/03/20 08:51:15;;;;;;;15.80;12.53;;;;;;;;;;6095583;23;20176;-78
2024/03/20 08:53:41;;;;;;;15.37;12.40;;;;;;;;;;6071847;23;20183;-79
2024/03/20 08:56:07;;;;;;;14.20;11.70;;;;;;;;;;6095542;23;20164;-79
2024/03/20 08:58:33;;;;;;;14.63;11.47;;;;;;;;;;6072124;23;20160;-78
2024/03/20 09:01:00;;;;;;;13.50;11.50;;;;;;;;;;6095383;23;20226;-79
2024/03/20 09:03:30;;;;;;;14.37;11.87;;;;;;;;;;6095667;23;20188;-78
2024/03/20 09:05:56;;;;;;;13.40;10.17;;;;;;;;;;6048118;23;20172;-80
2024/03/20 09:08:22;;;;;;;13.23;10.37;;;;;;;;;;6095114;23;20187;-82
2024/03/20 09:10:48;;;;;;;13.87;10.97;;;;;;;;;;6071123;23;20191;-81
2024/03/20 09:13:13;;;;;;;12.77;11.43;;;;;;;;;;6071248;23;20568;-79
2024/03/20 09:15:39;;;;;;;15.03;12.43;;;;;;;;;;6095034;23;20652;-79
2024/03/20 09:18:06;;;;;;;13.30;11.63;;;;;;;;;;6071279;23;20168;-78
2024/03/20 09:20:32;;;;;;;15.33;12.03;;;;;;;;;;6094888;23;20168;-79
2024/03/20 09:23:00;;;;;;;13.00;11.60;;;;;;;;;;6094896;23;20291;-79
2024/03/20 09:25:27;;;;;;;15.43;11.50;;;;;;;;;;6094496;23;20626;-79
2024/03/20 09:28:02;;;;;;;14.43;11.70;;;;;;;;;;6094850;23;20171;-78
2024/03/20 09:30:28;;;;;;;12.17;10.90;;;;;;;;;;6072693;23;20193;-77
2024/03/20 09:32:56;;;;;;;12.80;11.07;;;;;;;;;;6075450;23;20161;-82
2024/03/20 09:35:25;;;;;;;12.90;11.47;;;;;;;;;;6076084;23;20681;-78
2024/03/20 09:37:51;;;;;;;12.17;10.60;;;;;;;;;;6098793;23;20163;-78
2024/03/20 09:40:22;;;;;;;13.23;11.37;;;;;;;;;;6099167;23;20175;-80
2024/03/20 09:42:50;;;;;;;14.93;11.40;;;;;;;;;;6098537;23;20194;-80
2024/03/20 09:45:18;;;;;;;13.93;11.23;;;;;;;;;;6098108;23;20172;-80
2024/03/20 09:47:47;;;;;;;12.07;9.63;;;;;;;;;;6098659;23;20168;-81
2024/03/20 09:50:13;;;;;;;12.33;10.27;;;;;;;;;;6074279;23;20167;-78
2024/03/20 09:52:39;;;;;;;12.33;10.40;;;;;;;;;;6074009;23;20230;-79
2024/03/20 09:55:06;;;;;;;11.97;10.43;;;;;;;;;;6074015;23;20618;-80
2024/03/20 09:57:41;;;;;;;12.07;9.87;;;;;;;;;;6098311;23;20247;-79
2024/03/20 10:00:10;;;;;;;11.43;10.00;;;;;;;;;;6098370;23;20175;-79
2024/03/20 10:02:37;;;;;;;14.53;11.00;;;;;;;;;;6050323;23;20267;-80
2024/03/20 10:05:06;;;;;;;13.40;11.17;;;;;;;;;;6073880;23;20649;-78
2024/03/20 10:07:32;;;;;;;12.17;9.93;;;;;;;;;;6098128;23;20187;-79
2024/03/20 10:10:04;;;;;;;10.67;9.40;;;;;;;;;;6074198;23;20686;-79
2024/03/20 10:12:30;;;;;;;11.00;9.33;;;;;;;;;;6074063;23;20603;-79
2024/03/20 10:14:58;;;;;;;11.90;10.70;;;;;;;;;;6098265;23;20214;-80
2024/03/20 10:17:24;;;;;;;11.83;10.63;;;;;;;;;;6098219;23;20160;-78
2024/03/20 10:19:51;;;;;;;11.20;10.00;;;;;;;;;;6097907;23;20222;-79
2024/03/20 10:22:17;;;;;;;12.57;10.70;;;;;;;;;;6073737;23;20619;-79
2024/03/20 10:24:44;;;;;;;11.57;10.37;;;;;;;;;;6074170;23;20215;-80
2024/03/20 10:27:12;;;;;;;12.27;10.97;;;;;;;;;;6098490;23;20172;-79
2024/03/20 10:29:45;;;;;;;12.40;11.10;;;;;;;;;;6050490;23;20176;-79
2024/03/20 10:32:13;;;;;;;11.03;9.93;;;;;;;;;;6098249;23;20195;-78
2024/03/20 10:34:41;;;;;;;12.20;10.97;;;;;;;;;;6050711;23;20175;-79
2024/03/20 10:37:12;;;;;;;13.30;10.83;;;;;;;;;;6074760;23;20229;-79
2024/03/20 10:39:39;;;;;;;13.10;11.13;;;;;;;;;;6074771;23;20243;-81
2024/03/20 10:42:08;;;;;;;12.77;10.97;;;;;;;;;;6074039;23;20167;-81
2024/03/20 10:44:37;;;;;;;12.03;10.73;;;;;;;;;;6097678;23;20718;-80
2024/03/20 10:47:05;;;;;;;11.57;10.33;;;;;;;;;;6073663;23;20175;-80
2024/03/20 10:49:31;;;;;;;11.53;10.00;;;;;;;;;;6074494;23;20280;-81
2024/03/20 10:52:00;;;;;;;11.50;10.30;;;;;;;;;;6074629;23;20172;-80
2024/03/20 10:54:27;;;;;;;11.57;10.37;;;;;;;;;;6098208;23;20583;-81
2024/03/20 10:56:56;;;;;;;10.43;9.43;;;;;;;;;;6074027;23;20715;-79
2024/03/20 10:59:23;;;;;;;12.37;10.50;;;;;;;;;;6098411;23;20179;-78
2024/03/20 11:01:58;;;;;;;10.63;9.63;;;;;;;;;;6050069;23;20637;-80
2024/03/20 11:04:35;;;;;;;10.80;9.60;;;;;;;;;;6074162;23;20191;-79
2024/03/20 11:07:41;;;;;;;10.80;9.63;;;;;;;;;;6098744;23;20232;-80
2024/03/20 11:10:19;;;;;;;12.10;9.90;;;;;;;;;;6097930;23;20179;-81
2024/03/20 11:12:45;;;;;;;12.20;10.30;;;;;;;;;;6073736;23;20251;-79
2024/03/20 11:15:14;;;;;;;10.23;9.13;;;;;;;;;;6074258;23;20207;-78
2024/03/20 11:17:41;;;;;;;10.47;9.47;;;;;;;;;;6074920;23;20167;-79
2024/03/20 11:20:25;;;;;;;10.23;9.10;;;;;;;;;;6074684;23;20200;-79
2024/03/20 11:22:52;;;;;;;11.40;9.70;;;;;;;;;;6098564;23;20229;-80
2024/03/20 11:25:18;;;;;;;11.43;10.23;;;;;;;;;;6050695;23;20168;-79
2024/03/20 11:27:48;;;;;;;10.40;9.37;;;;;;;;;;6097791;23;20224;-80
2024/03/20 11:30:14;;;;;;;10.83;9.70;;;;;;;;;;6097765;23;20174;-79
2024/03/20 11:32:40;;;;;;;10.63;9.33;;;;;;;;;;6068618;23;20279;-80
2024/03/20 11:35:10;;;;;;;10.97;9.67;;;;;;;;;;6070148;23;20170;-80
2024/03/20 11:37:43;;;;;;;11.03;9.83;;;;;;;;;;6069346;23;20165;-79
2024/03/20 11:40:12;;;;;;;10.47;9.37;;;;;;;;;;6070834;23;20220;-80
2024/03/20 11:42:38;;;;;;;11.20;10.10;;;;;;;;;;6070557;23;20270;-81
2024/03/20 11:45:06;;;;;;;10.73;9.63;;;;;;;;;;6046614;23;20664;-80
2024/03/20 11:47:32;;;;;;;10.30;9.30;;;;;;;;;;6094931;23;20173;-80
2024/03/20 11:49:59;;;;;;;11.07;9.87;;;;;;;;;;6094660;23;20174;-80
2024/03/20 11:52:31;;;;;;;11.50;9.60;;;;;;;;;;6070513;23;20175;-80
2024/03/20 11:54:59;;;;;;;10.87;9.77;;;;;;;;;;6094870;23;20628;-79
2024/03/20 11:57:29;;;;;;;10.97;9.40;;;;;;;;;;6094927;23;20212;-78
2024/03/20 11:59:56;;;;;;;10.50;9.23;;;;;;;;;;6071224;23;20161;-79
2024/03/20 12:02:22;;;;;;;11.10;10.00;;;;;;;;;;6070694;23;20193;-79
2024/03/20 12:04:55;;;;;;;14.57;11.83;;;;;;;;;;6072290;23;20182;-79
2024/03/20 12:07:28;;;;;;;10.93;9.80;;;;;;;;;;6047456;23;20205;-79
2024/03/20 12:09:59;;;;;;;10.40;9.40;;;;;;;;;;6095234;23;20251;-79
2024/03/20 12:12:29;;;;;;;10.57;9.53;;;;;;;;;;6094777;23;20296;-79
2024/03/20 12:14:55;;;;;;;10.73;9.63;;;;;;;;;;6070413;23;20165;-79
2024/03/20 12:17:26;;;;;;;10.93;9.80;;;;;;;;;;6094164;23;20251;-80
2024/03/20 12:19:53;;;;;;;10.07;9.07;;;;;;;;;;6070386;23;20169;-79
2024/03/20 12:22:19;;;;;;;13.43;9.80;;;;;;;;;;6070445;23;20222;-79
2024/03/20 12:24:46;;;;;;;10.10;9.17;;;;;;;;;;6070764;23;20163;-81
2024/03/20 12:27:15;;;;;;;10.43;9.43;;;;;;;;;;6047584;23;20675;-79
2024/03/20 12:29:46;;;;;;;9.77;8.77;;;;;;;;;;6070686;23;20651;-78
2024/03/20 12:32:14;;;;;;;10.30;8.83;;;;;;;;;;6094302;23;20210;-79
2024/03/20 12:34:40;;;;;;;13.77;9.73;;;;;;;;;;6119212;23;20178;-80
2024/03/20 12:37:08;;;;;;;10.87;9.70;;;;;;;;;;6093855;23;20286;-80
2024/03/20 12:39:34;;;;;;;10.37;9.13;;;;;;;;;;6094279;23;20162;-80
2024/03/20 12:42:03;;;;;;;10.93;9.13;;;;;;;;;;6069946;23;20245;-82
2024/03/20 12:44:35;;;;;;;11.70;10.50;;;;;;;;;;6093822;23;20945;-79
2024/03/20 12:47:05;;;;;;;13.07;10.90;;;;;;;;;;6094440;23;20607;-79
2024/03/20 12:49:34;;;;;;;14.27;11.60;;;;;;;;;;6069695;23;20191;-80
2024/03/20 12:52:04;;;;;;;12.03;10.73;;;;;;;;;;6069888;23;20170;-79
2024/03/20 12:54:32;;;;;;;12.37;11.07;;;;;;;;;;6046061;23;20178;-82
2024/03/20 12:57:04;;;;;;;12.77;11.47;;;;;;;;;;6070180;23;20186;-79
2024/03/20 12:59:38;;;;;;;13.57;10.77;;;;;;;;;;6093777;23;20730;-79
2024/03/20 13:02:11;;;;;;;12.87;10.83;;;;;;;;;;6045654;23;20185;-79
2024/03/20 13:04:40;;;;;;;13.10;11.80;;;;;;;;;;6046345;23;20221;-79
2024/03/20 13:07:11;;;;;;;12.53;11.20;;;;;;;;;;6069395;23;20244;-81
2024/03/20 13:09:40;;;;;;;12.90;11.63;;;;;;;;;;6093570;23;20177;-81
2024/03/20 13:12:12;;;;;;;13.27;11.70;;;;;;;;;;6093349;23;20191;-79
2024/03/20 13:14:42;;;;;;;13.50;12.20;;;;;;;;;;6093857;23;20171;-79
2024/03/20 13:17:18;;;;;;;13.20;11.80;;;;;;;;;;6093260;23;20506;-79
2024/03/20 13:19:45;;;;;;;14.30;12.80;;;;;;;;;;6093825;23;20176;-80
2024/03/20 13:22:20;;;;;;;13.33;11.93;;;;;;;;;;6093633;23;20172;-79
2024/03/20 13:24:50;;;;;;;13.07;11.77;;;;;;;;;;6093831;23;20230;-80
2024/03/20 13:27:20;;;;;;;14.80;12.50;;;;;;;;;;6046605;23;20167;-80
2024/03/20 13:29:47;;;;;;;13.73;12.33;;;;;;;;;;6093706;23;20192;-81
2024/03/20 13:32:18;;;;;;;14.30;12.67;;;;;;;;;;6093199;23;20195;-80
2024/03/20 13:34:47;;;;;;;14.03;12.57;;;;;;;;;;6069887;23;20196;-82
2024/03/20 13:37:18;;;;;;;13.40;11.87;;;;;;;;;;6069653;23;20654;-80
2024/03/20 13:39:49;;;;;;;13.13;11.70;;;;;;;;;;6069599;23;20255;-80
2024/03/20 13:45:02;;;;;;;14.30;11.77;;;;;;;;;;6093713;23;20175;-79
2024/03/20 13:47:28;;;;;;;13.77;12.37;;;;;;;;;;6092945;23;20214;-80
2024/03/20 13:49:54;;;;;;;13.57;12.17;;;;;;;;;;6069111;23;20199;-80
2024/03/20 13:52:21;;;;;;;15.03;12.03;;;;;;;;;;6092713;23;20188;-81
2024/03/20 13:54:48;;;;;;;13.27;11.97;;;;;;;;;;6093512;23;20199;-82
2024/03/20 13:57:14;;;;;;;15.17;11.93;;;;;;;;;;6093181;23;20244;-81
2024/03/20 13:59:41;;;;;;;22.57;16.70;;;;;;;;;;6093443;23;20176;-81
2024/03/20 14:02:23;;;;;;;14.70;12.03;;;;;;;;;;6069132;23;20176;-79
2024/03/20 14:04:50;;;;;;;14.87;12.87;;;;;;;;;;6069977;23;20160;-79
2024/03/20 14:07:17;;;;;;;14.70;12.73;;;;;;;;;;6069470;23;20272;-80
2024/03/20 14:09:44;;;;;;;13.00;11.67;;;;;;;;;;6093457;23;20196;-80
2024/03/20 14:12:13;;;;;;;13.80;12.13;;;;;;;;;;6093478;23;20232;-79
2024/03/20 14:14:40;;;;;;;14.23;11.97;;;;;;;;;;6093524;23;20180;-80
2024/03/20 14:17:13;;;;;;;15.13;12.23;;;;;;;;;;6093452;23;20285;-79
2024/03/20 14:19:41;;;;;;;14.23;12.70;;;;;;;;;;6069489;23;20651;-80
2024/03/20 14:22:11;;;;;;;14.10;12.13;;;;;;;;;;6068881;23;20203;-79
2024/03/20 14:24:37;;;;;;;14.63;11.87;;;;;;;;;;6093184;23;20223;-80